sensor_id;sensor_type;location;lat;lon;timestamp;temperature;humidity
64062;DHT22;50308;47.438;-1.528;2023-04-16T00:00:33;11.20;75.00
64062;DHT22;50308;47.438;-1.528;2023-04-16T00:02:59;11.30;75.40
64062;DHT22;50308;47.438;-1.528;2023-04-16T00:05:25;11.30;75.20
64062;DHT22;50308;47.438;-1.528;2023-04-16T00:07:51;11.40;75.40
64062;DHT22;50308;47.438;-1.528;2023-04-16T00:10:17;11.30;75.10
64062;DHT22;50308;47.438;-1.528;2023-04-16T00:12:43;11.30;74.80
64062;DHT22;50308;47.438;-1.528;2023-04-16T00:15:08;11.20;75.00
64062;DHT22;50308;47.438;-1.528;2023-04-16T00:17:34;11.30;75.10
64062;DHT22;50308;47.438;-1.528;2023-04-16T00:20:00;11.30;75.00
64062;DHT22;50308;47.438;-1.528;2023-04-16T00:22:26;11.30;75.00
64062;DHT22;50308;47.438;-1.528;2023-04-16T00:24:52;11.20;75.00
64062;DHT22;50308;47.438;-1.528;2023-04-16T00:27:18;11.30;75.10
64062;DHT22;50308;47.438;-1.528;2023-04-16T00:29:44;11.30;75.20
64062;DHT22;50308;47.438;-1.528;2023-04-16T00:32:10;11.30;75.10
64062;DHT22;50308;47.438;-1.528;2023-04-16T00:34:36;11.30;75.10
64062;DHT22;50308;47.438;-1.528;2023-04-16T00:37:01;11.30;75.10
64062;DHT22;50308;47.438;-1.528;2023-04-16T00:39:27;11.20;75.40
64062;DHT22;50308;47.438;-1.528;2023-04-16T00:41:53;11.20;75.30
64062;DHT22;50308;47.438;-1.528;2023-04-16T00:44:18;11.20;75.40
64062;DHT22;50308;47.438;-1.528;2023-04-16T00:46:45;11.20;75.50
64062;DHT22;50308;47.438;-1.528;2023-04-16T00:49:11;11.20;75.60
64062;DHT22;50308;47.438;-1.528;2023-04-16T00:51:37;11.20;75.60
64062;DHT22;50308;47.438;-1.528;2023-04-16T00:54:03;11.10;75.80
64062;DHT22;50308;47.438;-1.528;2023-04-16T00:56:30;11.20;75.80
64062;DHT22;50308;47.438;-1.528;2023-04-16T00:58:56;11.20;75.80
64062;DHT22;50308;47.438;-1.528;2023-04-16T01:01:23;11.20;75.70
64062;DHT22;50308;47.438;-1.528;2023-04-16T01:03:48;11.10;76.20
64062;DHT22;50308;47.438;-1.528;2023-04-16T01:06:17;11.10;75.70
64062;DHT22;50308;47.438;-1.528;2023-04-16T01:08:44;11.20;76.00
64062;DHT22;50308;47.438;-1.528;2023-04-16T01:11:10;11.20;75.80
64062;DHT22;50308;47.438;-1.528;2023-04-16T01:13:36;11.20;75.80
64062;DHT22;50308;47.438;-1.528;2023-04-16T01:16:09;11.20;75.80
64062;DHT22;50308;47.438;-1.528;2023-04-16T01:18:35;11.20;76.20
64062;DHT22;50308;47.438;-1.528;2023-04-16T01:21:01;11.20;76.20
64062;DHT22;50308;47.438;-1.528;2023-04-16T01:23:27;11.20;75.80
64062;DHT22;50308;47.438;-1.528;2023-04-16T01:25:53;11.20;75.90
64062;DHT22;50308;47.438;-1.528;2023-04-16T01:28:18;11.20;76.00
64062;DHT22;50308;47.438;-1.528;2023-04-16T01:30:44;11.20;75.90
64062;DHT22;50308;47.438;-1.528;2023-04-16T01:33:10;11.20;76.00
64062;DHT22;50308;47.438;-1.528;2023-04-16T01:35:37;11.20;75.90
64062;DHT22;50308;47.438;-1.528;2023-04-16T01:38:04;11.10;75.90
64062;DHT22;50308;47.438;-1.528;2023-04-16T01:40:30;11.10;76.20
64062;DHT22;50308;47.438;-1.528;2023-04-16T01:42:56;11.10;76.20
64062;DHT22;50308;47.438;-1.528;2023-04-16T01:45:22;11.10;76.20
64062;DHT22;50308;47.438;-1.528;2023-04-16T01:47:49;11.10;76.00
64062;DHT22;50308;47.438;-1.528;2023-04-16T01:50:16;11.10;76.20
64062;DHT22;50308;47.438;-1.528;2023-04-16T01:52:42;11.10;76.20
64062;DHT22;50308;47.438;-1.528;2023-04-16T01:55:08;11.00;76.20
64062;DHT22;50308;47.438;-1.528;2023-04-16T01:57:34;11.10;76.60
64062;DHT22;50308;47.438;-1.528;2023-04-16T02:00:00;11.10;76.20
64062;DHT22;50308;47.438;-1.528;2023-04-16T02:02:25;11.00;76.30
64062;DHT22;50308;47.438;-1.528;2023-04-16T02:04:54;11.10;76.30
64062;DHT22;50308;47.438;-1.528;2023-04-16T02:07:20;11.00;76.10
64062;DHT22;50308;47.438;-1.528;2023-04-16T02:09:46;11.00;76.50
64062;DHT22;50308;47.438;-1.528;2023-04-16T02:12:12;11.10;76.70
64062;DHT22;50308;47.438;-1.528;2023-04-16T02:14:37;11.10;76.60
64062;DHT22;50308;47.438;-1.528;2023-04-16T02:17:03;11.10;76.20
64062;DHT22;50308;47.438;-1.528;2023-04-16T02:19:29;11.10;76.60
64062;DHT22;50308;47.438;-1.528;2023-04-16T02:21:55;11.10;76.60
64062;DHT22;50308;47.438;-1.528;2023-04-16T02:24:20;11.10;76.70
64062;DHT22;50308;47.438;-1.528;2023-04-16T02:26:46;11.00;76.70
64062;DHT22;50308;47.438;-1.528;2023-04-16T02:29:12;11.10;76.20
64062;DHT22;50308;47.438;-1.528;2023-04-16T02:31:38;11.00;76.70
64062;DHT22;50308;47.438;-1.528;2023-04-16T02:34:04;11.10;76.70
64062;DHT22;50308;47.438;-1.528;2023-04-16T02:36:30;11.10;76.20
64062;DHT22;50308;47.438;-1.528;2023-04-16T02:38:57;11.10;76.30
64062;DHT22;50308;47.438;-1.528;2023-04-16T02:41:23;11.00;76.20
64062;DHT22;50308;47.438;-1.528;2023-04-16T02:43:49;11.00;76.20
64062;DHT22;50308;47.438;-1.528;2023-04-16T02:46:14;11.00;76.60
64062;DHT22;50308;47.438;-1.528;2023-04-16T02:48:40;11.00;76.80
64062;DHT22;50308;47.438;-1.528;2023-04-16T02:51:06;11.00;76.70
64062;DHT22;50308;47.438;-1.528;2023-04-16T02:53:32;11.00;77.20
64062;DHT22;50308;47.438;-1.528;2023-04-16T02:55:57;11.00;76.20
64062;DHT22;50308;47.438;-1.528;2023-04-16T02:58:25;11.00;76.80
64062;DHT22;50308;47.438;-1.528;2023-04-16T03:00:52;10.90;76.70
64062;DHT22;50308;47.438;-1.528;2023-04-16T03:03:17;11.00;76.80
64062;DHT22;50308;47.438;-1.528;2023-04-16T03:05:43;10.90;76.30
64062;DHT22;50308;47.438;-1.528;2023-04-16T03:08:09;10.90;76.50
64062;DHT22;50308;47.438;-1.528;2023-04-16T03:10:35;10.90;76.70
64062;DHT22;50308;47.438;-1.528;2023-04-16T03:13:01;10.80;76.70
64062;DHT22;50308;47.438;-1.528;2023-04-16T03:15:27;10.80;76.80
64062;DHT22;50308;47.438;-1.528;2023-04-16T03:17:53;10.80;76.70
64062;DHT22;50308;47.438;-1.528;2023-04-16T03:20:19;10.80;76.60
64062;DHT22;50308;47.438;-1.528;2023-04-16T03:22:48;10.80;76.70
64062;DHT22;50308;47.438;-1.528;2023-04-16T03:25:14;10.70;76.50
64062;DHT22;50308;47.438;-1.528;2023-04-16T03:27:40;10.70;76.50
64062;DHT22;50308;47.438;-1.528;2023-04-16T03:30:07;10.60;76.50
64062;DHT22;50308;47.438;-1.528;2023-04-16T03:32:33;10.70;76.60
64062;DHT22;50308;47.438;-1.528;2023-04-16T03:34:58;10.70;76.50
64062;DHT22;50308;47.438;-1.528;2023-04-16T03:37:24;10.70;76.60
64062;DHT22;50308;47.438;-1.528;2023-04-16T03:39:50;10.70;76.00
64062;DHT22;50308;47.438;-1.528;2023-04-16T03:42:16;10.70;76.50
64062;DHT22;50308;47.438;-1.528;2023-04-16T03:44:42;10.70;76.70
64062;DHT22;50308;47.438;-1.528;2023-04-16T03:47:08;10.70;76.80
64062;DHT22;50308;47.438;-1.528;2023-04-16T03:49:33;10.70;76.80
64062;DHT22;50308;47.438;-1.528;2023-04-16T03:51:59;10.70;76.80
64062;DHT22;50308;47.438;-1.528;2023-04-16T03:54:24;10.60;76.70
64062;DHT22;50308;47.438;-1.528;2023-04-16T03:56:51;10.60;76.50
64062;DHT22;50308;47.438;-1.528;2023-04-16T03:59:17;10.70;76.70
64062;DHT22;50308;47.438;-1.528;2023-04-16T04:01:42;10.70;76.60
64062;DHT22;50308;47.438;-1.528;2023-04-16T04:04:08;10.70;76.40
64062;DHT22;50308;47.438;-1.528;2023-04-16T04:06:34;10.70;76.70
64062;DHT22;50308;47.438;-1.528;2023-04-16T04:09:00;10.60;76.70
64062;DHT22;50308;47.438;-1.528;2023-04-16T04:11:26;10.60;76.90
64062;DHT22;50308;47.438;-1.528;2023-04-16T04:13:52;10.60;76.90
64062;DHT22;50308;47.438;-1.528;2023-04-16T04:16:17;10.50;76.80
64062;DHT22;50308;47.438;-1.528;2023-04-16T04:18:43;10.50;76.80
64062;DHT22;50308;47.438;-1.528;2023-04-16T04:21:09;10.50;76.70
64062;DHT22;50308;47.438;-1.528;2023-04-16T04:23:35;10.40;76.70
64062;DHT22;50308;47.438;-1.528;2023-04-16T04:26:01;10.40;77.00
64062;DHT22;50308;47.438;-1.528;2023-04-16T04:28:29;10.40;76.70
64062;DHT22;50308;47.438;-1.528;2023-04-16T04:30:56;10.30;76.90
64062;DHT22;50308;47.438;-1.528;2023-04-16T04:33:22;10.30;77.20
64062;DHT22;50308;47.438;-1.528;2023-04-16T04:35:48;10.20;76.90
64062;DHT22;50308;47.438;-1.528;2023-04-16T04:38:13;10.20;77.30
64062;DHT22;50308;47.438;-1.528;2023-04-16T04:40:39;10.20;77.30
64062;DHT22;50308;47.438;-1.528;2023-04-16T04:43:05;10.30;77.20
64062;DHT22;50308;47.438;-1.528;2023-04-16T04:45:31;10.30;76.90
64062;DHT22;50308;47.438;-1.528;2023-04-16T04:47:56;10.30;76.70
64062;DHT22;50308;47.438;-1.528;2023-04-16T04:50:22;10.20;76.90
64062;DHT22;50308;47.438;-1.528;2023-04-16T04:52:48;10.20;76.90
64062;DHT22;50308;47.438;-1.528;2023-04-16T04:55:13;10.30;77.00
64062;DHT22;50308;47.438;-1.528;2023-04-16T04:57:41;10.30;76.90
64062;DHT22;50308;47.438;-1.528;2023-04-16T05:00:07;10.30;76.70
64062;DHT22;50308;47.438;-1.528;2023-04-16T05:02:33;10.30;77.00
64062;DHT22;50308;47.438;-1.528;2023-04-16T05:04:58;10.30;76.70
64062;DHT22;50308;47.438;-1.528;2023-04-16T05:07:24;10.20;76.70
64062;DHT22;50308;47.438;-1.528;2023-04-16T05:09:50;10.20;76.60
64062;DHT22;50308;47.438;-1.528;2023-04-16T05:12:16;10.20;76.50
64062;DHT22;50308;47.438;-1.528;2023-04-16T05:14:42;10.20;76.60
64062;DHT22;50308;47.438;-1.528;2023-04-16T05:17:07;10.20;76.70
64062;DHT22;50308;47.438;-1.528;2023-04-16T05:19:35;10.20;76.80
64062;DHT22;50308;47.438;-1.528;2023-04-16T05:22:01;10.20;76.70
64062;DHT22;50308;47.438;-1.528;2023-04-16T05:24:27;10.20;76.70
64062;DHT22;50308;47.438;-1.528;2023-04-16T05:26:53;10.20;76.60
64062;DHT22;50308;47.438;-1.528;2023-04-16T05:29:18;10.10;76.70
64062;DHT22;50308;47.438;-1.528;2023-04-16T05:31:44;10.10;76.80
64062;DHT22;50308;47.438;-1.528;2023-04-16T05:34:10;10.10;77.00
64062;DHT22;50308;47.438;-1.528;2023-04-16T05:36:36;10.20;76.70
64062;DHT22;50308;47.438;-1.528;2023-04-16T05:39:01;10.10;76.80
64062;DHT22;50308;47.438;-1.528;2023-04-16T05:41:27;10.10;76.70
64062;DHT22;50308;47.438;-1.528;2023-04-16T05:43:53;10.10;77.00
64062;DHT22;50308;47.438;-1.528;2023-04-16T05:46:18;10.10;76.80
64062;DHT22;50308;47.438;-1.528;2023-04-16T05:48:44;10.10;76.90
64062;DHT22;50308;47.438;-1.528;2023-04-16T05:51:10;10.10;77.20
64062;DHT22;50308;47.438;-1.528;2023-04-16T05:53:36;10.10;76.90
64062;DHT22;50308;47.438;-1.528;2023-04-16T05:56:01;10.10;77.20
64062;DHT22;50308;47.438;-1.528;2023-04-16T05:58:27;10.10;77.00
64062;DHT22;50308;47.438;-1.528;2023-04-16T06:00:53;10.10;77.10
64062;DHT22;50308;47.438;-1.528;2023-04-16T06:03:18;10.10;77.30
64062;DHT22;50308;47.438;-1.528;2023-04-16T06:05:44;10.10;77.10
64062;DHT22;50308;47.438;-1.528;2023-04-16T06:08:10;10.00;77.60
64062;DHT22;50308;47.438;-1.528;2023-04-16T06:10:35;10.00;78.10
64062;DHT22;50308;47.438;-1.528;2023-04-16T06:13:01;10.00;77.90
64062;DHT22;50308;47.438;-1.528;2023-04-16T06:15:27;10.10;77.80
64062;DHT22;50308;47.438;-1.528;2023-04-16T06:17:53;10.30;77.60
64062;DHT22;50308;47.438;-1.528;2023-04-16T06:20:19;10.30;77.40
64062;DHT22;50308;47.438;-1.528;2023-04-16T06:22:44;10.30;77.50
64062;DHT22;50308;47.438;-1.528;2023-04-16T06:25:10;10.40;77.70
64062;DHT22;50308;47.438;-1.528;2023-04-16T06:27:36;10.40;77.70
64062;DHT22;50308;47.438;-1.528;2023-04-16T06:30:02;10.50;77.60
64062;DHT22;50308;47.438;-1.528;2023-04-16T06:32:27;10.50;77.60
64062;DHT22;50308;47.438;-1.528;2023-04-16T06:34:53;10.50;78.00
64062;DHT22;50308;47.438;-1.528;2023-04-16T06:37:19;10.50;78.00
64062;DHT22;50308;47.438;-1.528;2023-04-16T06:39:44;10.50;77.60
64062;DHT22;50308;47.438;-1.528;2023-04-16T06:42:10;10.60;77.70
64062;DHT22;50308;47.438;-1.528;2023-04-16T06:44:36;10.60;78.00
64062;DHT22;50308;47.438;-1.528;2023-04-16T06:47:01;10.60;78.00
64062;DHT22;50308;47.438;-1.528;2023-04-16T06:49:27;10.60;77.90
64062;DHT22;50308;47.438;-1.528;2023-04-16T06:51:53;10.70;77.80
64062;DHT22;50308;47.438;-1.528;2023-04-16T06:54:18;10.70;77.90
64062;DHT22;50308;47.438;-1.528;2023-04-16T06:56:44;10.70;78.20
64062;DHT22;50308;47.438;-1.528;2023-04-16T06:59:10;10.70;78.50
64062;DHT22;50308;47.438;-1.528;2023-04-16T07:01:35;10.70;78.30
64062;DHT22;50308;47.438;-1.528;2023-04-16T07:04:01;10.80;78.20
64062;DHT22;50308;47.438;-1.528;2023-04-16T07:06:27;10.80;78.40
64062;DHT22;50308;47.438;-1.528;2023-04-16T07:08:53;10.90;78.40
64062;DHT22;50308;47.438;-1.528;2023-04-16T07:11:19;10.90;78.50
64062;DHT22;50308;47.438;-1.528;2023-04-16T07:13:45;11.00;78.60
64062;DHT22;50308;47.438;-1.528;2023-04-16T07:16:11;11.10;78.80
64062;DHT22;50308;47.438;-1.528;2023-04-16T07:18:36;11.10;78.70
64062;DHT22;50308;47.438;-1.528;2023-04-16T07:21:03;11.10;79.60
64062;DHT22;50308;47.438;-1.528;2023-04-16T07:23:29;11.10;78.60
64062;DHT22;50308;47.438;-1.528;2023-04-16T07:25:55;11.10;78.90
64062;DHT22;50308;47.438;-1.528;2023-04-16T07:28:21;11.30;78.80
64062;DHT22;50308;47.438;-1.528;2023-04-16T07:30:46;11.30;78.70
64062;DHT22;50308;47.438;-1.528;2023-04-16T07:33:12;11.30;79.10
64062;DHT22;50308;47.438;-1.528;2023-04-16T07:35:38;11.30;79.10
64062;DHT22;50308;47.438;-1.528;2023-04-16T07:38:03;11.30;79.00
64062;DHT22;50308;47.438;-1.528;2023-04-16T07:40:29;11.30;79.20
64062;DHT22;50308;47.438;-1.528;2023-04-16T07:42:54;11.30;79.40
64062;DHT22;50308;47.438;-1.528;2023-04-16T07:45:20;11.40;79.50
64062;DHT22;50308;47.438;-1.528;2023-04-16T07:47:46;11.40;79.50
64062;DHT22;50308;47.438;-1.528;2023-04-16T07:50:12;11.50;79.50
64062;DHT22;50308;47.438;-1.528;2023-04-16T07:52:38;11.60;79.70
64062;DHT22;50308;47.438;-1.528;2023-04-16T07:55:07;11.70;79.90
64062;DHT22;50308;47.438;-1.528;2023-04-16T07:57:32;11.70;79.80
64062;DHT22;50308;47.438;-1.528;2023-04-16T07:59:58;11.80;79.50
64062;DHT22;50308;47.438;-1.528;2023-04-16T08:02:26;11.90;79.70
64062;DHT22;50308;47.438;-1.528;2023-04-16T08:04:52;11.90;79.20
64062;DHT22;50308;47.438;-1.528;2023-04-16T08:07:17;12.00;78.80
64062;DHT22;50308;47.438;-1.528;2023-04-16T08:09:52;12.10;78.90
64062;DHT22;50308;47.438;-1.528;2023-04-16T08:12:18;12.10;78.60
64062;DHT22;50308;47.438;-1.528;2023-04-16T08:14:45;12.10;77.20
64062;DHT22;50308;47.438;-1.528;2023-04-16T08:17:12;12.20;78.00
64062;DHT22;50308;47.438;-1.528;2023-04-16T08:19:38;12.20;77.90
64062;DHT22;50308;47.438;-1.528;2023-04-16T08:22:04;12.20;77.90
64062;DHT22;50308;47.438;-1.528;2023-04-16T08:24:29;12.30;78.00
64062;DHT22;50308;47.438;-1.528;2023-04-16T08:26:55;12.30;78.30
64062;DHT22;50308;47.438;-1.528;2023-04-16T08:29:21;12.30;78.30
64062;DHT22;50308;47.438;-1.528;2023-04-16T08:31:49;12.30;78.20
64062;DHT22;50308;47.438;-1.528;2023-04-16T08:34:15;12.40;78.30
64062;DHT22;50308;47.438;-1.528;2023-04-16T08:36:41;12.40;77.50
64062;DHT22;50308;47.438;-1.528;2023-04-16T08:39:06;12.40;77.50
64062;DHT22;50308;47.438;-1.528;2023-04-16T08:41:33;12.50;77.90
64062;DHT22;50308;47.438;-1.528;2023-04-16T08:44:06;12.50;77.30
64062;DHT22;50308;47.438;-1.528;2023-04-16T08:46:36;12.50;76.10
64062;DHT22;50308;47.438;-1.528;2023-04-16T08:49:05;12.60;76.00
64062;DHT22;50308;47.438;-1.528;2023-04-16T08:51:33;12.60;76.30
64062;DHT22;50308;47.438;-1.528;2023-04-16T08:54:08;12.60;76.00
64062;DHT22;50308;47.438;-1.528;2023-04-16T08:56:36;12.70;76.60
64062;DHT22;50308;47.438;-1.528;2023-04-16T08:59:03;12.60;76.60
64062;DHT22;50308;47.438;-1.528;2023-04-16T09:01:32;12.70;77.00
64062;DHT22;50308;47.438;-1.528;2023-04-16T09:03:59;12.70;76.80
64062;DHT22;50308;47.438;-1.528;2023-04-16T09:06:28;12.70;79.40
64062;DHT22;50308;47.438;-1.528;2023-04-16T09:08:54;12.70;79.50
64062;DHT22;50308;47.438;-1.528;2023-04-16T09:11:20;12.70;76.70
64062;DHT22;50308;47.438;-1.528;2023-04-16T09:13:46;12.70;76.40
64062;DHT22;50308;47.438;-1.528;2023-04-16T09:16:13;12.70;78.50
64062;DHT22;50308;47.438;-1.528;2023-04-16T09:18:39;12.60;78.90
64062;DHT22;50308;47.438;-1.528;2023-04-16T09:21:08;12.70;77.70
64062;DHT22;50308;47.438;-1.528;2023-04-16T09:23:35;12.80;77.20
64062;DHT22;50308;47.438;-1.528;2023-04-16T09:26:01;12.80;75.70
64062;DHT22;50308;47.438;-1.528;2023-04-16T09:28:42;12.80;76.70
64062;DHT22;50308;47.438;-1.528;2023-04-16T09:31:13;12.80;75.80
64062;DHT22;50308;47.438;-1.528;2023-04-16T09:33:39;12.90;75.70
64062;DHT22;50308;47.438;-1.528;2023-04-16T09:36:05;12.90;75.40
64062;DHT22;50308;47.438;-1.528;2023-04-16T09:38:47;12.90;75.30
64062;DHT22;50308;47.438;-1.528;2023-04-16T09:41:13;13.00;75.70
64062;DHT22;50308;47.438;-1.528;2023-04-16T09:43:56;12.90;76.30
64062;DHT22;50308;47.438;-1.528;2023-04-16T09:48:54;13.00;75.50
64062;DHT22;50308;47.438;-1.528;2023-04-16T09:51:19;13.00;75.90
64062;DHT22;50308;47.438;-1.528;2023-04-16T09:53:45;13.00;76.70
64062;DHT22;50308;47.438;-1.528;2023-04-16T09:56:11;13.00;76.30
64062;DHT22;50308;47.438;-1.528;2023-04-16T09:58:37;13.00;76.90
64062;DHT22;50308;47.438;-1.528;2023-04-16T10:03:32;13.00;75.30
64062;DHT22;50308;47.438;-1.528;2023-04-16T10:06:19;13.10;75.70
64062;DHT22;50308;47.438;-1.528;2023-04-16T10:08:45;13.10;75.30
64062;DHT22;50308;47.438;-1.528;2023-04-16T10:11:11;13.00;75.20
64062;DHT22;50308;47.438;-1.528;2023-04-16T10:13:37;13.10;75.50
64062;DHT22;50308;47.438;-1.528;2023-04-16T10:16:03;13.10;75.30
64062;DHT22;50308;47.438;-1.528;2023-04-16T10:18:29;13.00;75.30
64062;DHT22;50308;47.438;-1.528;2023-04-16T10:20:56;13.10;75.20
64062;DHT22;50308;47.438;-1.528;2023-04-16T10:23:22;13.10;75.40
64062;DHT22;50308;47.438;-1.528;2023-04-16T10:25:49;13.10;75.40
64062;DHT22;50308;47.438;-1.528;2023-04-16T10:28:15;13.10;75.40
64062;DHT22;50308;47.438;-1.528;2023-04-16T10:30:46;13.10;76.40
64062;DHT22;50308;47.438;-1.528;2023-04-16T10:33:23;13.10;75.30
64062;DHT22;50308;47.438;-1.528;2023-04-16T10:35:50;13.10;75.30
64062;DHT22;50308;47.438;-1.528;2023-04-16T10:38:26;13.10;75.40
64062;DHT22;50308;47.438;-1.528;2023-04-16T10:40:59;13.10;75.40
64062;DHT22;50308;47.438;-1.528;2023-04-16T10:43:31;13.10;75.40
64062;DHT22;50308;47.438;-1.528;2023-04-16T10:46:00;13.10;75.60
64062;DHT22;50308;47.438;-1.528;2023-04-16T10:48:41;13.10;75.40
64062;DHT22;50308;47.438;-1.528;2023-04-16T10:51:07;13.20;75.40
64062;DHT22;50308;47.438;-1.528;2023-04-16T10:53:45;13.20;75.50
64062;DHT22;50308;47.438;-1.528;2023-04-16T10:56:12;13.20;75.30
64062;DHT22;50308;47.438;-1.528;2023-04-16T10:58:38;13.20;75.30
64062;DHT22;50308;47.438;-1.528;2023-04-16T11:01:10;13.20;75.20
64062;DHT22;50308;47.438;-1.528;2023-04-16T11:03:41;13.20;75.10
64062;DHT22;50308;47.438;-1.528;2023-04-16T11:06:22;13.20;75.20
64062;DHT22;50308;47.438;-1.528;2023-04-16T11:08:50;13.20;75.10
64062;DHT22;50308;47.438;-1.528;2023-04-16T11:11:17;13.20;75.40
64062;DHT22;50308;47.438;-1.528;2023-04-16T11:13:44;13.20;76.20
64062;DHT22;50308;47.438;-1.528;2023-04-16T11:16:13;13.20;75.00
64062;DHT22;50308;47.438;-1.528;2023-04-16T11:18:39;13.30;75.20
64062;DHT22;50308;47.438;-1.528;2023-04-16T11:21:10;13.20;75.20
64062;DHT22;50308;47.438;-1.528;2023-04-16T11:23:50;13.20;75.20
64062;DHT22;50308;47.438;-1.528;2023-04-16T11:26:34;13.30;75.00
64062;DHT22;50308;47.438;-1.528;2023-04-16T11:28:59;13.30;75.00
64062;DHT22;50308;47.438;-1.528;2023-04-16T11:31:25;13.30;74.70
64062;DHT22;50308;47.438;-1.528;2023-04-16T11:33:51;13.30;74.50
64062;DHT22;50308;47.438;-1.528;2023-04-16T11:36:18;13.30;74.50
64062;DHT22;50308;47.438;-1.528;2023-04-16T11:38:45;13.40;74.60
64062;DHT22;50308;47.438;-1.528;2023-04-16T11:41:18;13.30;74.50
64062;DHT22;50308;47.438;-1.528;2023-04-16T11:43:44;13.30;74.60
64062;DHT22;50308;47.438;-1.528;2023-04-16T11:46:10;13.40;74.60
64062;DHT22;50308;47.438;-1.528;2023-04-16T11:48:46;13.40;74.60
64062;DHT22;50308;47.438;-1.528;2023-04-16T11:51:12;13.40;74.60
64062;DHT22;50308;47.438;-1.528;2023-04-16T11:53:49;13.40;74.80
64062;DHT22;50308;47.438;-1.528;2023-04-16T11:56:15;13.40;74.60
64062;DHT22;50308;47.438;-1.528;2023-04-16T11:59:05;13.40;74.60
64062;DHT22;50308;47.438;-1.528;2023-04-16T12:01:33;13.40;74.60
64062;DHT22;50308;47.438;-1.528;2023-04-16T12:04:02;13.40;74.80
64062;DHT22;50308;47.438;-1.528;2023-04-16T12:06:27;13.40;74.70
64062;DHT22;50308;47.438;-1.528;2023-04-16T12:08:53;13.40;74.70
64062;DHT22;50308;47.438;-1.528;2023-04-16T12:11:19;13.40;74.70
64062;DHT22;50308;47.438;-1.528;2023-04-16T12:14:10;13.40;74.60
64062;DHT22;50308;47.438;-1.528;2023-04-16T12:16:37;13.40;74.60
64062;DHT22;50308;47.438;-1.528;2023-04-16T12:19:04;13.40;74.50
64062;DHT22;50308;47.438;-1.528;2023-04-16T12:21:49;13.50;74.70
64062;DHT22;50308;47.438;-1.528;2023-04-16T12:24:16;13.50;74.70
64062;DHT22;50308;47.438;-1.528;2023-04-16T12:26:45;13.50;74.50
64062;DHT22;50308;47.438;-1.528;2023-04-16T12:29:21;13.50;74.20
64062;DHT22;50308;47.438;-1.528;2023-04-16T12:31:48;13.50;74.50
64062;DHT22;50308;47.438;-1.528;2023-04-16T12:34:14;13.50;74.40
64062;DHT22;50308;47.438;-1.528;2023-04-16T12:36:42;13.50;74.40
64062;DHT22;50308;47.438;-1.528;2023-04-16T12:39:08;13.50;75.60
64062;DHT22;50308;47.438;-1.528;2023-04-16T12:41:42;13.50;74.50
64062;DHT22;50308;47.438;-1.528;2023-04-16T12:44:11;13.50;74.40
64062;DHT22;50308;47.438;-1.528;2023-04-16T12:46:38;13.50;74.10
64062;DHT22;50308;47.438;-1.528;2023-04-16T12:49:04;13.50;73.70
64062;DHT22;50308;47.438;-1.528;2023-04-16T12:51:30;13.60;73.30
64062;DHT22;50308;47.438;-1.528;2023-04-16T12:53:56;13.60;73.70
64062;DHT22;50308;47.438;-1.528;2023-04-16T12:56:22;13.60;73.70
64062;DHT22;50308;47.438;-1.528;2023-04-16T12:58:47;13.60;73.90
64062;DHT22;50308;47.438;-1.528;2023-04-16T13:01:17;13.60;73.80
64062;DHT22;50308;47.438;-1.528;2023-04-16T13:03:43;13.60;74.00
64062;DHT22;50308;47.438;-1.528;2023-04-16T13:06:08;13.60;74.20
64062;DHT22;50308;47.438;-1.528;2023-04-16T13:08:34;13.60;73.60
64062;DHT22;50308;47.438;-1.528;2023-04-16T13:11:00;13.60;73.80
64062;DHT22;50308;47.438;-1.528;2023-04-16T13:13:26;13.60;73.80
64062;DHT22;50308;47.438;-1.528;2023-04-16T13:15:51;13.60;74.00
64062;DHT22;50308;47.438;-1.528;2023-04-16T13:18:17;13.60;74.00
64062;DHT22;50308;47.438;-1.528;2023-04-16T13:20:43;13.60;73.80
64062;DHT22;50308;47.438;-1.528;2023-04-16T13:23:08;13.60;74.00
64062;DHT22;50308;47.438;-1.528;2023-04-16T13:25:34;13.70;74.10
64062;DHT22;50308;47.438;-1.528;2023-04-16T13:27:59;13.60;74.00
64062;DHT22;50308;47.438;-1.528;2023-04-16T13:30:25;13.70;75.00
64062;DHT22;50308;47.438;-1.528;2023-04-16T13:32:54;13.70;73.90
64062;DHT22;50308;47.438;-1.528;2023-04-16T13:35:20;13.70;73.80
64062;DHT22;50308;47.438;-1.528;2023-04-16T13:37:45;13.70;74.00
64062;DHT22;50308;47.438;-1.528;2023-04-16T13:40:11;13.70;73.80
64062;DHT22;50308;47.438;-1.528;2023-04-16T13:42:37;13.70;73.80
64062;DHT22;50308;47.438;-1.528;2023-04-16T13:45:02;13.70;74.00
64062;DHT22;50308;47.438;-1.528;2023-04-16T13:47:28;13.70;73.90
64062;DHT22;50308;47.438;-1.528;2023-04-16T13:49:54;13.70;73.50
64062;DHT22;50308;47.438;-1.528;2023-04-16T13:52:21;13.70;73.40
64062;DHT22;50308;47.438;-1.528;2023-04-16T13:54:47;13.80;73.50
64062;DHT22;50308;47.438;-1.528;2023-04-16T13:57:12;13.70;73.70
64062;DHT22;50308;47.438;-1.528;2023-04-16T13:59:38;13.70;73.70
64062;DHT22;50308;47.438;-1.528;2023-04-16T14:02:04;13.80;73.50
64062;DHT22;50308;47.438;-1.528;2023-04-16T14:04:30;13.80;73.30
64062;DHT22;50308;47.438;-1.528;2023-04-16T14:06:56;13.80;73.30
64062;DHT22;50308;47.438;-1.528;2023-04-16T14:09:21;13.80;73.30
64062;DHT22;50308;47.438;-1.528;2023-04-16T14:11:47;13.80;73.30
64062;DHT22;50308;47.438;-1.528;2023-04-16T14:14:13;13.80;73.30
64062;DHT22;50308;47.438;-1.528;2023-04-16T14:16:39;13.80;73.30
64062;DHT22;50308;47.438;-1.528;2023-04-16T14:19:04;13.80;73.30
64062;DHT22;50308;47.438;-1.528;2023-04-16T14:21:30;13.80;73.50
64062;DHT22;50308;47.438;-1.528;2023-04-16T14:23:56;13.80;73.70
64062;DHT22;50308;47.438;-1.528;2023-04-16T14:26:22;13.80;73.40
64062;DHT22;50308;47.438;-1.528;2023-04-16T14:28:47;13.80;73.00
64062;DHT22;50308;47.438;-1.528;2023-04-16T14:31:15;13.80;72.20
64062;DHT22;50308;47.438;-1.528;2023-04-16T14:33:42;13.80;73.00
64062;DHT22;50308;47.438;-1.528;2023-04-16T14:36:08;13.80;73.20
64062;DHT22;50308;47.438;-1.528;2023-04-16T14:38:34;13.80;73.00
64062;DHT22;50308;47.438;-1.528;2023-04-16T14:41:00;13.80;73.50
64062;DHT22;50308;47.438;-1.528;2023-04-16T14:43:26;13.90;73.30
64062;DHT22;50308;47.438;-1.528;2023-04-16T14:45:51;13.90;73.20
64062;DHT22;50308;47.438;-1.528;2023-04-16T14:48:17;13.90;73.20
64062;DHT22;50308;47.438;-1.528;2023-04-16T14:50:43;13.80;73.20
64062;DHT22;50308;47.438;-1.528;2023-04-16T14:53:10;13.90;73.30
64062;DHT22;50308;47.438;-1.528;2023-04-16T14:55:36;13.90;73.20
64062;DHT22;50308;47.438;-1.528;2023-04-16T14:58:02;13.90;72.90
64062;DHT22;50308;47.438;-1.528;2023-04-16T15:00:28;13.90;73.20
64062;DHT22;50308;47.438;-1.528;2023-04-16T15:02:54;13.90;73.40
64062;DHT22;50308;47.438;-1.528;2023-04-16T15:05:20;13.90;73.30
64062;DHT22;50308;47.438;-1.528;2023-04-16T15:07:46;13.90;73.00
64062;DHT22;50308;47.438;-1.528;2023-04-16T15:10:12;13.90;74.00
64062;DHT22;50308;47.438;-1.528;2023-04-16T15:12:38;13.90;72.90
64062;DHT22;50308;47.438;-1.528;2023-04-16T15:15:05;13.80;72.90
64062;DHT22;50308;47.438;-1.528;2023-04-16T15:17:31;13.90;72.90